Time;durP1;ratioP1;P1;durP2;ratioP2;P2;SDS_P1;SDS_P2;PMS_P1;PMS_P2;Temp;Humidity;BMP_temperature;BMP_pressure;BME280_temperature;BME280_humidity;BME280_pressure;Samples;Min_cycle;Max_cycle;Signal;HPM_P1;HPM_P2
2021/09/29 00:01:28;;;;;;;;;;;;;;;12.41;75.08;96716.47;5074904;28;20004;-80
2021/09/29 00:03:54;;;;;;;;;;;;;;;12.41;74.97;96714.66;5074916;28;19963;-80
2021/09/29 00:06:20;;;;;;;;;;;;;;;12.41;75.02;96711.19;5075482;28;19947;-81
2021/09/29 00:08:46;;;;;;;;;;;;;;;12.40;74.91;96710.41;5075525;28;20003;-81
2021/09/29 00:11:11;;;;;;;;;;;;;;;12.41;75.07;96714.66;5075161;28;19953;-80
2021/09/29 00:13:38;;;;;;;;;;;;;;;12.41;75.12;96714.66;5074909;28;20001;-80
2021/09/29 00:16:04;;;;;;;;;;;;;;;12.41;75.16;96719.09;5074688;28;19967;-80
2021/09/29 00:18:29;;;;;;;;;;;;;;;12.41;75.24;96726.97;5075367;28;19960;-80
2021/09/29 00:20:55;;;;;;;;;;;;;;;12.39;75.12;96725.38;5075155;28;19958;-81
2021/09/29 00:23:21;;;;;;;;;;;;;;;12.37;75.10;96719.53;5074564;28;19999;-80
2021/09/29 00:25:47;;;;;;;;;;;;;;;12.37;74.98;96729.28;5074482;28;19956;-80
2021/09/29 00:28:13;;;;;;;;;;;;;;;12.37;75.13;96718.75;5074632;28;20048;-80
2021/09/29 00:30:50;;;;;;;;;;;;;;;12.34;75.11;96711.28;5074375;28;19947;-80
2021/09/29 00:33:19;;;;;;;;;;;;;;;12.32;75.23;96716.75;5074300;28;19973;-80
2021/09/29 00:35:45;;;;;;;;;;;;;;;12.30;75.34;96718.00;5074344;28;19953;-81
2021/09/29 00:38:11;;;;;;;;;;;;;;;12.28;75.43;96714.81;5074425;28;19957;-80
2021/09/29 00:40:37;;;;;;;;;;;;;;;12.26;75.38;96704.50;5074331;28;19956;-81
2021/09/29 00:43:03;;;;;;;;;;;;;;;12.26;75.49;96703.72;5074372;28;19947;-81
2021/09/29 00:45:29;;;;;;;;;;;;;;;12.25;75.34;96708.16;5074236;28;19954;-80
2021/09/29 00:47:55;;;;;;;;;;;;;;;12.23;75.50;96704.97;5074460;28;20049;-80
2021/09/29 00:50:21;;;;;;;;;;;;;;;12.24;75.56;96711.00;5074283;28;19990;-80
2021/09/29 00:52:47;;;;;;;;;;;;;;;12.24;75.40;96708.38;5074224;28;20023;-80
2021/09/29 00:55:13;;;;;;;;;;;;;;;12.22;75.61;96711.25;5074271;28;19964;-80
2021/09/29 00:57:40;;;;;;;;;;;;;;;12.20;75.73;96715.94;5073868;28;19961;-80
2021/09/29 01:00:07;;;;;;;;;;;;;;;12.19;75.58;96720.38;5073818;28;19960;-81
2021/09/29 01:02:33;;;;;;;;;;;;;;;12.17;75.46;96719.00;5074187;28;19963;-80
2021/09/29 01:04:59;;;;;;;;;;;;;;;12.16;75.82;96715.56;5073792;28;19963;-80
2021/09/29 01:07:29;;;;;;;;;;;;;;;12.13;75.76;96708.09;5073869;28;19957;-80
2021/09/29 01:10:02;;;;;;;;;;;;;;;12.13;75.81;96718.63;5073902;28;19960;-80
2021/09/29 01:12:34;;;;;;;;;;;;;;;12.11;75.74;96725.13;5074112;28;19957;-80
2021/09/29 01:15:06;;;;;;;;;;;;;;;12.09;75.73;96720.06;5073667;28;19950;-80
2021/09/29 01:17:33;;;;;;;;;;;;;;;12.08;75.81;96713.22;5074566;28;19949;-81
2021/09/29 01:20:05;;;;;;;;;;;;;;;12.06;75.57;96712.66;5073876;28;19957;-80
2021/09/29 01:22:51;;;;;;;;;;;;;;;12.06;75.76;96709.22;5073643;28;19966;-81
2021/09/29 01:25:31;;;;;;;;;;;;;;;12.03;75.70;96713.06;5073960;28;19955;-81
2021/09/29 01:27:59;;;;;;;;;;;;;;;12.01;75.61;96715.16;5060165;28;19952;-81
2021/09/29 01:30:25;;;;;;;;;;;;;;;11.98;75.63;96711.09;5072414;28;19958;-81
2021/09/29 01:32:51;;;;;;;;;;;;;;;11.97;75.52;96712.16;5073640;28;20478;-81
2021/09/29 01:35:17;;;;;;;;;;;;;;;11.95;75.84;96705.50;5073362;28;19967;-81
2021/09/29 01:37:43;;;;;;;;;;;;;;;11.93;75.80;96705.72;5073718;28;20093;-80
2021/09/29 01:40:10;;;;;;;;;;;;;;;11.89;75.94;96701.13;5073750;28;19959;-81
2021/09/29 01:42:36;;;;;;;;;;;;;;;11.85;76.02;96694.69;5073849;28;19952;-81
2021/09/29 01:45:02;;;;;;;;;;;;;;;11.80;75.81;96705.84;5073645;28;20039;-80
2021/09/29 01:47:27;;;;;;;;;;;;;;;11.76;75.68;96720.44;5077691;28;20342;-81
2021/09/29 01:50:00;;;;;;;;;;;;;;;11.71;76.06;96721.06;5077560;28;19984;-81
2021/09/29 01:52:28;;;;;;;;;;;;;;;11.67;76.09;96713.84;5077972;28;19951;-81
2021/09/29 01:54:55;;;;;;;;;;;;;;;11.62;76.48;96711.09;5077566;28;19961;-81
2021/09/29 01:57:21;;;;;;;;;;;;;;;11.56;76.37;96703.03;5077531;28;20414;-81
2021/09/29 01:59:47;;;;;;;;;;;;;;;11.53;76.42;96703.50;5077437;28;19965;-81
2021/09/29 02:02:13;;;;;;;;;;;;;;;11.50;77.06;96709.16;5077493;28;19980;-81
2021/09/29 02:04:49;;;;;;;;;;;;;;;11.45;76.80;96710.84;5077392;28;19991;-81
2021/09/29 02:07:15;;;;;;;;;;;;;;;11.41;77.00;96699.97;5076246;28;19959;-81
2021/09/29 02:09:41;;;;;;;;;;;;;;;11.38;77.07;96693.31;5077056;28;19958;-81
2021/09/29 02:12:07;;;;;;;;;;;;;;;11.35;78.11;96703.44;5077240;28;20049;-81
2021/09/29 02:14:33;;;;;;;;;;;;;;;11.30;77.58;96703.31;5076951;28;19966;-81
2021/09/29 02:16:59;;;;;;;;;;;;;;;11.27;77.89;96699.28;5077498;28;20039;-81
2021/09/29 02:19:25;;;;;;;;;;;;;;;11.26;77.98;96705.56;5076830;28;19954;-81
2021/09/29 02:21:52;;;;;;;;;;;;;;;11.24;78.08;96704.97;5077189;28;20012;-81
2021/09/29 02:24:18;;;;;;;;;;;;;;;11.24;78.49;96717.28;5077180;28;19959;-81
2021/09/29 02:26:44;;;;;;;;;;;;;;;11.24;78.19;96720.72;5077099;28;19961;-81
2021/09/29 02:29:11;;;;;;;;;;;;;;;11.26;78.10;96717.88;5076696;28;19954;-81
2021/09/29 02:31:37;;;;;;;;;;;;;;;11.27;78.13;96722.91;5076894;28;19962;-81
2021/09/29 02:34:04;;;;;;;;;;;;;;;11.27;78.19;96716.84;5076699;28;19976;-81
2021/09/29 02:36:30;;;;;;;;;;;;;;;11.27;78.05;96719.47;5076913;28;20462;-81
2021/09/29 02:38:56;;;;;;;;;;;;;;;11.25;78.11;96711.81;5077001;28;19957;-81
2021/09/29 02:41:22;;;;;;;;;;;;;;;11.25;78.06;96724.13;5076543;28;19952;-81
2021/09/29 02:43:48;;;;;;;;;;;;;;;11.24;77.71;96728.59;5076707;28;19955;-81
2021/09/29 02:46:14;;;;;;;;;;;;;;;11.22;77.62;96724.59;5076520;28;19956;-81
2021/09/29 02:48:40;;;;;;;;;;;;;;;11.22;77.56;96737.72;5076288;28;19954;-81
2021/09/29 02:51:06;;;;;;;;;;;;;;;11.20;77.68;96735.28;5076501;28;19990;-81
2021/09/29 02:53:31;;;;;;;;;;;;;;;11.20;77.45;96742.38;5076306;28;19973;-81
2021/09/29 02:55:58;;;;;;;;;;;;;;;11.18;77.59;96743.38;5075966;28;20312;-81
2021/09/29 02:58:25;;;;;;;;;;;;;;;11.17;77.97;96746.19;5076273;28;19950;-81
2021/09/29 03:00:52;;;;;;;;;;;;;;;11.13;77.98;96745.06;5076697;28;20351;-81
2021/09/29 03:03:18;;;;;;;;;;;;;;;11.10;77.84;96737.59;5076092;28;19954;-81
2021/09/29 03:05:44;;;;;;;;;;;;;;;11.10;78.04;96740.22;5076316;28;19958;-81
2021/09/29 03:08:10;;;;;;;;;;;;;;;11.08;77.87;96744.88;5076287;28;20336;-81
2021/09/29 03:10:38;;;;;;;;;;;;;;;11.08;78.23;96742.25;5076052;28;19952;-81
2021/09/29 03:13:07;;;;;;;;;;;;;;;11.06;78.34;96739.81;5075993;28;19965;-81
2021/09/29 03:15:33;;;;;;;;;;;;;;;11.05;78.74;96745.31;5075818;28;19987;-81
2021/09/29 03:17:59;;;;;;;;;;;;;;;11.03;78.95;96750.75;5076020;28;20470;-81
2021/09/29 03:20:25;;;;;;;;;;;;;;;11.00;79.79;96753.78;5075797;28;19953;-81
2021/09/29 03:22:51;;;;;;;;;;;;;;;10.96;79.46;96748.19;5076184;28;19967;-81
2021/09/29 03:25:18;;;;;;;;;;;;;;;10.96;79.39;96742.94;5075891;28;19964;-81
2021/09/29 03:27:44;;;;;;;;;;;;;;;10.96;79.88;96753.44;5075679;28;20315;-81
2021/09/29 03:30:10;;;;;;;;;;;;;;;10.97;79.64;96748.97;5075665;28;19960;-81
2021/09/29 03:32:36;;;;;;;;;;;;;;;10.99;79.80;96756.66;5075823;28;20336;-81
2021/09/29 03:35:02;;;;;;;;;;;;;;;10.99;79.83;96754.03;5075623;28;20008;-81
2021/09/29 03:37:28;;;;;;;;;;;;;;;11.02;79.67;96764.09;5075862;28;19961;-81
2021/09/29 03:39:53;;;;;;;;;;;;;;;11.01;79.67;96768.53;5075511;28;19964;-81
2021/09/29 03:42:19;;;;;;;;;;;;;;;11.00;80.19;96769.53;5075631;28;19988;-81
2021/09/29 03:44:45;;;;;;;;;;;;;;;11.00;79.82;96777.41;5075776;28;19997;-81
2021/09/29 03:47:11;;;;;;;;;;;;;;;11.02;79.93;96779.84;5075503;28;19956;-81
2021/09/29 03:49:37;;;;;;;;;;;;;;;11.02;80.23;96778.00;5075264;28;20056;-80
2021/09/29 03:52:03;;;;;;;;;;;;;;;11.02;80.35;96780.63;5075603;28;19955;-81
2021/09/29 03:54:29;;;;;;;;;;;;;;;11.04;80.51;96775.97;5075198;28;19954;-81
2021/09/29 03:56:55;;;;;;;;;;;;;;;11.06;80.88;96767.91;5075391;28;19956;-81
2021/09/29 03:59:21;;;;;;;;;;;;;;;11.04;81.51;96770.72;5075692;28;19962;-81
2021/09/29 04:01:46;;;;;;;;;;;;;;;11.03;81.27;96777.00;5075243;28;20007;-81
2021/09/29 04:04:12;;;;;;;;;;;;;;;11.01;81.06;96776.41;5075526;28;19964;-81
2021/09/29 04:06:38;;;;;;;;;;;;;;;11.02;80.97;96783.25;5074895;28;20334;-81
2021/09/29 04:09:04;;;;;;;;;;;;;;;11.01;81.42;96783.50;5074081;28;20434;-81
2021/09/29 04:11:30;;;;;;;;;;;;;;;10.97;81.67;96777.84;5075008;28;20384;-81
2021/09/29 04:13:56;;;;;;;;;;;;;;;10.92;81.51;96786.38;5075316;28;20089;-81
2021/09/29 04:16:22;;;;;;;;;;;;;;;10.93;81.55;96793.22;5074685;28;19954;-81
2021/09/29 04:18:48;;;;;;;;;;;;;;;10.95;81.35;96785.13;5074647;28;19956;-81
2021/09/29 04:21:13;;;;;;;;;;;;;;;10.95;81.36;96779.88;5074584;28;19961;-81
2021/09/29 04:23:39;;;;;;;;;;;;;;;10.97;81.48;96783.09;5074516;28;20490;-81
2021/09/29 04:26:06;;;;;;;;;;;;;;;11.00;81.43;96784.50;5075032;28;20010;-81
2021/09/29 04:28:32;;;;;;;;;;;;;;;11.00;81.29;96785.28;5074602;28;19958;-81
2021/09/29 04:30:58;;;;;;;;;;;;;;;11.03;81.42;96791.97;5074643;28;20035;-81
2021/09/29 04:33:24;;;;;;;;;;;;;;;11.03;81.58;96797.22;5074588;28;20391;-81
2021/09/29 04:35:50;;;;;;;;;;;;;;;11.02;81.24;96788.50;5074423;28;19955;-81
2021/09/29 04:38:16;;;;;;;;;;;;;;;11.01;81.40;96794.78;5074289;28;19950;-81
2021/09/29 04:40:42;;;;;;;;;;;;;;;10.99;81.11;96794.19;5074458;28;19962;-81
2021/09/29 04:43:08;;;;;;;;;;;;;;;10.99;80.68;96798.66;5074208;28;20037;-81
2021/09/29 04:45:33;;;;;;;;;;;;;;;10.99;80.70;96803.88;5074374;28;20389;-81
2021/09/29 04:48:03;;;;;;;;;;;;;;;10.97;80.48;96812.75;5074451;28;19997;-81
2021/09/29 04:50:29;;;;;;;;;;;;;;;10.96;80.66;96811.16;5073924;28;20454;-81
2021/09/29 04:52:55;;;;;;;;;;;;;;;10.95;81.29;96811.38;5074112;28;19968;-81
2021/09/29 04:55:23;;;;;;;;;;;;;;;10.96;80.86;96802.47;5073111;28;20563;-81
2021/09/29 04:57:49;;;;;;;;;;;;;;;10.96;81.23;96811.16;5074621;28;19960;-81
2021/09/29 05:00:15;;;;;;;;;;;;;;;10.97;80.96;96804.88;5073900;28;19963;-81
2021/09/29 05:02:44;;;;;;;;;;;;;;;10.99;80.76;96811.75;5074230;28;20410;-81
2021/09/29 05:05:10;;;;;;;;;;;;;;;10.99;80.85;96807.31;5063623;28;19954;-81
2021/09/29 05:07:38;;;;;;;;;;;;;;;11.00;81.02;96813.34;5073662;28;19953;-81
2021/09/29 05:10:05;;;;;;;;;;;;;;;10.98;80.49;96803.06;5063354;28;19960;-81
2021/09/29 05:12:31;;;;;;;;;;;;;;;10.97;80.53;96806.72;5074165;28;19963;-81
2021/09/29 05:14:57;;;;;;;;;;;;;;;10.93;80.22;96803.69;5073741;28;19975;-81
2021/09/29 05:17:23;;;;;;;;;;;;;;;10.92;79.99;96809.19;5074160;28;19951;-81
2021/09/29 05:19:49;;;;;;;;;;;;;;;10.90;80.40;96811.22;5073582;28;19955;-81
2021/09/29 05:22:15;;;;;;;;;;;;;;;10.86;80.10;96815.28;5073666;28;19997;-81
2021/09/29 05:24:41;;;;;;;;;;;;;;;10.83;79.84;96816.47;5074016;28;20307;-81
2021/09/29 05:27:07;;;;;;;;;;;;;;;10.79;79.62;96820.53;5073514;28;19991;-81
2021/09/29 05:29:34;;;;;;;;;;;;;;;10.76;79.20;96821.75;5073928;28;20316;-81
2021/09/29 05:32:00;;;;;;;;;;;;;;;10.76;79.82;96820.97;5073690;28;20305;-81
2021/09/29 05:34:26;;;;;;;;;;;;;;;10.72;79.66;96822.41;5073906;28;20001;-81
2021/09/29 05:36:52;;;;;;;;;;;;;;;10.71;79.70;96815.56;5073542;28;19996;-81
2021/09/29 05:39:18;;;;;;;;;;;;;;;10.67;79.80;96819.59;5073578;28;19970;-81
2021/09/29 05:41:44;;;;;;;;;;;;;;;10.63;79.43;96821.03;5073835;28;20404;-81
2021/09/29 05:44:10;;;;;;;;;;;;;;;10.62;79.69;96827.28;5073735;28;19952;-81
2021/09/29 05:46:36;;;;;;;;;;;;;;;10.57;79.66;96828.69;5073320;28;19953;-81
2021/09/29 05:49:02;;;;;;;;;;;;;;;10.56;79.68;96828.91;5073381;28;19998;-81
2021/09/29 05:51:28;;;;;;;;;;;;;;;10.56;79.71;96832.34;5060435;28;19976;-81
2021/09/29 05:53:54;;;;;;;;;;;;;;;10.62;79.83;96840.38;5073266;28;19983;-81
2021/09/29 05:56:20;;;;;;;;;;;;;;;10.92;79.49;96844.09;5073648;28;19951;-81
2021/09/29 05:58:46;;;;;;;;;;;;;;;11.25;78.92;96831.78;5073122;28;20334;-81
2021/09/29 06:01:12;;;;;;;;;;;;;;;11.51;78.04;96830.81;5073328;28;19952;-81
2021/09/29 06:03:37;;;;;;;;;;;;;;;11.64;77.22;96830.69;5073137;28;20433;-81
2021/09/29 06:06:03;;;;;;;;;;;;;;;11.62;76.99;96832.72;5073512;28;19964;-81
2021/09/29 06:08:29;;;;;;;;;;;;;;;11.87;76.71;96843.22;5073134;28;19995;-81
2021/09/29 06:10:57;;;;;;;;;;;;;;;12.21;75.79;96842.94;5073352;28;20039;-81
2021/09/29 06:13:23;;;;;;;;;;;;;;;12.56;74.60;96843.97;5073264;28;19951;-81
2021/09/29 06:15:50;;;;;;;;;;;;;;;12.89;74.04;96834.03;5073247;28;20326;-81
2021/09/29 06:18:16;;;;;;;;;;;;;;;13.15;73.02;96832.88;5073177;28;19953;-81
2021/09/29 06:20:47;;;;;;;;;;;;;;;13.27;72.90;96830.28;5072917;28;19978;-81
2021/09/29 06:23:13;;;;;;;;;;;;;;;13.48;72.05;96837.69;5073443;28;19950;-81
2021/09/29 06:25:39;;;;;;;;;;;;;;;13.70;71.93;96843.22;5073003;28;19962;-82
2021/09/29 06:28:05;;;;;;;;;;;;;;;13.90;71.23;96844.72;5073282;28;20369;-81
2021/09/29 06:30:31;;;;;;;;;;;;;;;14.12;70.69;96851.03;5073313;28;20038;-81
2021/09/29 06:32:57;;;;;;;;;;;;;;;14.32;70.36;96855.97;5076429;28;19974;-81
2021/09/29 06:35:23;;;;;;;;;;;;;;;14.54;70.07;96852.69;5076776;28;20412;-82
2021/09/29 06:37:49;;;;;;;;;;;;;;;14.68;70.10;96850.63;5076617;28;19961;-81
2021/09/29 06:40:16;;;;;;;;;;;;;;;14.79;69.48;96849.81;5076588;28;19955;-81
2021/09/29 06:42:43;;;;;;;;;;;;;;;14.74;68.55;96839.94;5076844;28;19954;-81
2021/09/29 06:45:09;;;;;;;;;;;;;;;14.66;69.37;96848.22;5076709;28;19949;-81
2021/09/29 06:47:38;;;;;;;;;;;;;;;14.56;69.87;96846.19;5076529;28;20329;-81
2021/09/29 06:50:05;;;;;;;;;;;;;;;14.40;70.07;96852.97;5076153;28;19982;-81
2021/09/29 06:52:31;;;;;;;;;;;;;;;14.20;70.19;96855.97;5076958;28;19961;-81
2021/09/29 06:54:57;;;;;;;;;;;;;;;13.92;71.08;96855.84;5076144;28;19961;-81
2021/09/29 06:57:23;;;;;;;;;;;;;;;13.72;71.67;96862.25;5076251;28;20422;-81
2021/09/29 06:59:49;;;;;;;;;;;;;;;13.87;71.94;96859.16;5076568;28;20000;-81
2021/09/29 07:02:15;;;;;;;;;;;;;;;14.17;71.84;96860.88;5076048;28;19957;-81
2021/09/29 07:04:41;;;;;;;;;;;;;;;14.44;71.25;96857.75;5076427;28;20427;-81
2021/09/29 07:07:07;;;;;;;;;;;;;;;14.58;70.38;96852.03;5076039;28;19968;-81
2021/09/29 07:09:33;;;;;;;;;;;;;;;14.60;70.54;96849.97;5076265;28;19979;-81
2021/09/29 07:11:58;;;;;;;;;;;;;;;14.40;70.40;96850.31;5076114;28;20329;-81
2021/09/29 07:14:24;;;;;;;;;;;;;;;14.11;71.78;96853.88;5076008;28;20060;-81
2021/09/29 07:16:52;;;;;;;;;;;;;;;14.00;72.42;96855.50;5076227;28;20430;-81
2021/09/29 07:19:18;;;;;;;;;;;;;;;13.89;71.87;96851.81;5076067;28;20344;-81
2021/09/29 07:21:44;;;;;;;;;;;;;;;13.80;72.43;96856.63;5075615;28;20027;-81
2021/09/29 07:24:10;;;;;;;;;;;;;;;13.98;73.12;96850.47;5075978;28;19957;-81
2021/09/29 07:26:37;;;;;;;;;;;;;;;14.25;72.93;96857.91;5075773;28;19997;-81
2021/09/29 07:29:03;;;;;;;;;;;;;;;14.47;70.82;96854.66;5075823;28;19959;-81
2021/09/29 07:31:30;;;;;;;;;;;;;;;14.65;70.11;96857.16;5075648;28;19962;-81
2021/09/29 07:33:56;;;;;;;;;;;;;;;14.87;70.38;96854.72;5075299;28;19956;-81
2021/09/29 07:36:22;;;;;;;;;;;;;;;14.99;68.07;96852.00;5075665;28;19960;-81
2021/09/29 07:38:49;;;;;;;;;;;;;;;15.13;67.33;96841.97;5075924;28;19955;-81
2021/09/29 07:41:15;;;;;;;;;;;;;;;15.29;67.76;96849.13;5075523;28;20302;-80
2021/09/29 07:43:41;;;;;;;;;;;;;;;15.36;66.55;96849.78;5074367;28;19960;-81
2021/09/29 07:46:06;;;;;;;;;;;;;;;15.38;65.74;96836.34;5075403;28;20062;-81
2021/09/29 07:48:33;;;;;;;;;;;;;;;15.43;65.18;96834.59;5075382;28;20348;-80
2021/09/29 07:50:59;;;;;;;;;;;;;;;15.61;65.39;96830.91;5075213;28;19979;-80
2021/09/29 07:53:26;;;;;;;;;;;;;;;15.75;63.79;96814.75;5075701;28;20018;-80
2021/09/29 07:55:53;;;;;;;;;;;;;;;15.87;64.51;96817.28;5075241;28;20347;-81
2021/09/29 07:58:19;;;;;;;;;;;;;;;15.88;65.38;96824.19;5075050;28;19971;-80
2021/09/29 08:00:45;;;;;;;;;;;;;;;15.81;64.13;96822.53;5075628;28;19958;-81
2021/09/29 08:03:11;;;;;;;;;;;;;;;15.83;62.18;96809.84;5075226;28;20319;-81
2021/09/29 08:05:37;;;;;;;;;;;;;;;15.87;63.62;96826.03;5075345;28;19962;-81
2021/09/29 08:08:03;;;;;;;;;;;;;;;15.89;63.48;96826.59;5074947;28;20040;-80
2021/09/29 08:10:29;;;;;;;;;;;;;;;15.96;62.57;96819.28;5075684;28;19958;-81
2021/09/29 08:12:55;;;;;;;;;;;;;;;15.97;62.21;96810.31;5074862;28;20404;-81
2021/09/29 08:15:22;;;;;;;;;;;;;;;16.00;61.80;96824.88;5075062;28;19980;-81
2021/09/29 08:17:48;;;;;;;;;;;;;;;16.08;61.70;96808.59;5074941;28;20402;-80
2021/09/29 08:20:17;;;;;;;;;;;;;;;16.17;61.93;96814.28;5074470;28;19953;-81
2021/09/29 08:22:46;;;;;;;;;;;;;;;16.26;61.09;96810.16;5073431;28;19966;-80
2021/09/29 08:25:21;;;;;;;;;;;;;;;16.23;61.88;96816.75;5074860;28;19947;-80
2021/09/29 08:28:09;;;;;;;;;;;;;;;16.33;61.98;96831.16;5075217;28;19968;-80
2021/09/29 08:38:36;;;;;;;;;;;;;;;15.96;60.45;96814.00;5055217;28;20373;-80
2021/09/29 08:44:13;;;;;;;;;;;;;;;16.00;62.45;96830.16;5074512;28;20328;-81
2021/09/29 08:49:27;;;;;;;;;;;;;;;16.31;62.02;96836.69;5074332;28;19962;-81
2021/09/29 08:57:19;;;;;;;;;;;;;;;15.98;62.44;96829.59;5066476;28;20436;-81
2021/09/29 09:16:31;;;;;;;;;;;;;;;16.80;58.17;96781.19;5066355;28;19979;-80
2021/09/29 09:18:59;;;;;;;;;;;;;;;16.98;57.27;96773.94;5073579;28;20421;-80
2021/09/29 09:21:27;;;;;;;;;;;;;;;17.10;56.71;96773.78;5073613;28;19971;-80
2021/09/29 09:23:53;;;;;;;;;;;;;;;17.23;55.00;96752.94;5073781;28;19959;-80
2021/09/29 09:26:20;;;;;;;;;;;;;;;17.30;54.28;96746.63;5073819;28;20396;-80
2021/09/29 09:28:48;;;;;;;;;;;;;;;17.34;51.40;96724.66;5073739;28;19954;-80
2021/09/29 09:31:18;;;;;;;;;;;;;;;17.34;52.51;96740.56;5073769;28;19951;-80
2021/09/29 09:33:54;;;;;;;;;;;;;;;17.26;53.02;96759.63;5073208;28;19967;-80
2021/09/29 09:36:37;;;;;;;;;;;;;;;17.25;54.34;96763.31;5073456;28;19967;-80
2021/09/29 09:39:04;;;;;;;;;;;;;;;17.29;55.29;96774.22;5073476;28;19954;-80
2021/09/29 09:41:30;;;;;;;;;;;;;;;17.33;53.02;96759.41;5073486;28;19956;-80
2021/09/29 09:43:58;;;;;;;;;;;;;;;17.31;54.34;96770.25;5073552;28;20478;-80
2021/09/29 09:46:24;;;;;;;;;;;;;;;17.25;52.17;96747.41;5073649;28;20402;-80
2021/09/29 09:49:04;;;;;;;;;;;;;;;17.18;53.60;96771.47;5073381;28;19957;-80
2021/09/29 09:51:31;;;;;;;;;;;;;;;17.07;54.35;96766.31;5074033;28;19981;-80
2021/09/29 09:53:57;;;;;;;;;;;;;;;17.08;55.52;96784.63;5073389;28;19961;-80
2021/09/29 09:56:25;;;;;;;;;;;;;;;17.17;55.78;96779.66;5073590;28;19964;-80
2021/09/29 09:58:56;;;;;;;;;;;;;;;17.29;55.42;96766.25;5073368;28;19959;-80
2021/09/29 10:01:23;;;;;;;;;;;;;;;17.28;53.90;96754.03;5073463;28;19961;-80
2021/09/29 10:03:50;;;;;;;;;;;;;;;17.34;52.89;96753.03;5073182;28;20413;-80
2021/09/29 10:06:17;;;;;;;;;;;;;;;17.40;53.94;96749.38;5074195;28;19973;-80
2021/09/29 10:09:10;;;;;;;;;;;;;;;17.41;52.99;96750.97;5077264;28;19955;-80
2021/09/29 10:11:35;;;;;;;;;;;;;;;17.37;53.25;96755.19;5077072;28;19957;-80
2021/09/29 10:27:20;;;;;;;;;;;;;;;16.88;53.44;96755.28;5077006;28;19960;-80
2021/09/29 10:29:52;;;;;;;;;;;;;;;16.83;54.25;96763.97;5077320;28;19957;-80
2021/09/29 10:32:27;;;;;;;;;;;;;;;16.77;54.00;96757.00;5076833;28;19957;-80
2021/09/29 10:34:58;;;;;;;;;;;;;;;16.66;53.83;96750.81;5076952;28;19970;-80
2021/09/29 10:37:50;;;;;;;;;;;;;;;16.58;54.27;96752.03;5076867;28;19958;-80
2021/09/29 10:43:05;;;;;;;;;;;;;;;16.59;55.02;96758.16;5071988;28;19963;-80
2021/09/29 10:48:37;;;;;;;;;;;;;;;16.63;54.96;96756.59;5076697;28;19952;-80
2021/09/29 11:03:14;;;;;;;;;;;;;;;16.92;55.20;96762.47;5076899;28;19959;-80
2021/09/29 11:30:17;;;;;;;;;;;;;;;18.74;48.25;96709.13;5075965;28;19960;-80
2021/09/29 11:32:50;;;;;;;;;;;;;;;18.62;49.94;96717.34;5075846;28;20329;-80
2021/09/29 12:11:16;;;;;;;;;;;;;;;18.29;48.43;96691.22;5075560;28;19952;-80
2021/09/29 12:13:58;;;;;;;;;;;;;;;18.55;48.20;96681.47;5074944;28;19944;-80
2021/09/29 12:16:35;;;;;;;;;;;;;;;18.76;49.52;96693.72;5074786;28;19976;-80
2021/09/29 12:19:01;;;;;;;;;;;;;;;18.94;47.95;96684.50;5074740;28;19961;-80
2021/09/29 12:21:56;;;;;;;;;;;;;;;18.98;47.72;96695.38;5074699;28;19959;-79
2021/09/29 12:24:29;;;;;;;;;;;;;;;19.11;47.58;96676.25;5064415;28;19955;-80
2021/09/29 12:26:57;;;;;;;;;;;;;;;19.29;46.85;96684.72;5074909;28;19953;-79
2021/09/29 12:29:36;;;;;;;;;;;;;;;19.43;47.18;96693.75;5073981;28;19970;-80
2021/09/29 12:32:13;;;;;;;;;;;;;;;19.61;48.52;96703.84;5074810;28;20401;-80
2021/09/29 12:34:48;;;;;;;;;;;;;;;19.60;46.39;96694.25;5074446;28;19948;-80
2021/09/29 12:37:15;;;;;;;;;;;;;;;19.42;46.57;96702.78;5074904;28;19978;-80
2021/09/29 12:39:42;;;;;;;;;;;;;;;19.23;47.74;96707.84;5074184;28;19969;-80
2021/09/29 12:42:08;;;;;;;;;;;;;;;19.06;48.33;96718.75;5074235;28;19959;-80
2021/09/29 12:44:46;;;;;;;;;;;;;;;18.85;47.75;96712.63;5074621;28;19951;-79
2021/09/29 12:49:47;;;;;;;;;;;;;;;18.80;49.48;96720.63;5073863;28;19965;-79
2021/09/29 12:52:27;;;;;;;;;;;;;;;18.75;48.94;96716.06;5074381;28;20004;-79
2021/09/29 12:54:53;;;;;;;;;;;;;;;18.67;49.76;96714.72;5074058;28;19952;-80
2021/09/29 12:57:18;;;;;;;;;;;;;;;18.57;49.90;96722.66;5074225;28;19969;-80
2021/09/29 12:59:44;;;;;;;;;;;;;;;18.44;50.43;96733.78;5074061;28;20408;-79
2021/09/29 13:02:10;;;;;;;;;;;;;;;18.30;51.56;96745.94;5073993;28;19957;-79
2021/09/29 13:04:36;;;;;;;;;;;;;;;18.18;52.21;96770.03;5073861;28;20503;-80
2021/09/29 13:07:02;;;;;;;;;;;;;;;18.03;53.82;96781.38;5073891;28;19954;-80
2021/09/29 13:09:28;;;;;;;;;;;;;;;17.90;57.28;96795.09;5074006;28;19966;-80
2021/09/29 13:11:54;;;;;;;;;;;;;;;17.71;58.78;96805.28;5073933;28;19952;-79
2021/09/29 13:14:20;;;;;;;;;;;;;;;17.50;60.05;96809.66;5074096;28;19951;-79
2021/09/29 13:16:46;;;;;;;;;;;;;;;17.32;61.64;96832.00;5073709;28;20013;-79
2021/09/29 13:19:18;;;;;;;;;;;;;;;17.14;62.50;96841.94;5073523;28;19968;-77
2021/09/29 13:35:28;;;;;;;;;;;;;;;15.90;68.41;96875.00;5073498;28;19950;-76
2021/09/29 13:37:55;;;;;;;;;;;;;;;15.62;69.42;96877.47;5073553;28;20325;-76
2021/09/29 13:40:22;;;;;;;;;;;;;;;15.45;70.47;96863.41;5073596;28;19953;-76
2021/09/29 13:42:48;;;;;;;;;;;;;;;15.30;71.56;96858.66;5073403;28;19960;-77
2021/09/29 13:45:14;;;;;;;;;;;;;;;15.28;71.76;96850.16;5073686;28;19953;-76
2021/09/29 13:47:39;;;;;;;;;;;;;;;15.49;73.94;96858.44;5073676;28;19961;-77
2021/09/29 13:50:06;;;;;;;;;;;;;;;15.67;75.27;96860.88;5073612;28;20420;-78
2021/09/29 13:52:32;;;;;;;;;;;;;;;15.76;72.71;96856.00;5073388;28;19963;-79
2021/09/29 13:55:02;;;;;;;;;;;;;;;15.79;70.65;96866.09;5073674;28;19946;-79
2021/09/29 13:58:17;;;;;;;;;;;;;;;15.78;71.49;96870.59;5074108;28;20313;-80
2021/09/29 14:00:29;;;;;;;;;;;;;;;15.79;72.00;96864.28;5063186;28;19954;-80
2021/09/29 14:35:31;;;;;;;;;;;;;;;13.99;74.23;96928.53;5072425;28;19968;-78
2021/09/29 14:37:57;;;;;;;;;;;;;;;13.90;74.52;96921.19;5071686;28;19954;-78
2021/09/29 14:40:24;;;;;;;;;;;;;;;13.82;75.02;96930.22;5072888;28;19947;-77
2021/09/29 14:42:51;;;;;;;;;;;;;;;13.79;76.30;96936.75;5071721;28;19955;-77
2021/09/29 14:45:20;;;;;;;;;;;;;;;13.76;75.33;96942.47;5072829;28;20362;-77
2021/09/29 14:47:46;;;;;;;;;;;;;;;13.66;75.09;96957.22;5073424;28;19957;-77
2021/09/29 14:50:13;;;;;;;;;;;;;;;13.57;74.10;96962.81;5072738;28;19977;-77
2021/09/29 14:52:38;;;;;;;;;;;;;;;13.49;75.17;96967.59;5074383;28;19956;-78
2021/09/29 14:55:05;;;;;;;;;;;;;;;13.39;75.79;96965.50;5076335;28;19962;-78
2021/09/29 14:57:31;;;;;;;;;;;;;;;13.35;75.76;96978.28;5075524;28;19964;-78
2021/09/29 14:59:57;;;;;;;;;;;;;;;13.25;75.69;96980.66;5076432;28;19967;-79
2021/09/29 15:02:23;;;;;;;;;;;;;;;13.26;74.70;96982.25;5076336;28;20055;-80
2021/09/29 15:04:49;;;;;;;;;;;;;;;13.25;75.11;96985.91;5076709;28;19947;-79
2021/09/29 15:07:15;;;;;;;;;;;;;;;13.27;73.67;96983.03;5076314;28;19959;-80
2021/09/29 15:09:40;;;;;;;;;;;;;;;13.29;75.48;96995.00;5076297;28;20313;-80
2021/09/29 15:12:07;;;;;;;;;;;;;;;13.27;75.54;96996.22;5076137;28;20328;-80
2021/09/29 15:17:11;;;;;;;;;;;;;;;13.27;75.13;96999.66;5076007;28;20435;-81
2021/09/29 15:30:53;;;;;;;;;;;;;;;13.12;72.91;97004.47;5076031;28;19955;-80
2021/09/29 15:49:08;;;;;;;;;;;;;;;13.14;74.19;97008.50;5075505;28;19952;-80
2021/09/29 15:51:43;;;;;;;;;;;;;;;13.14;72.50;96999.81;5075262;28;19980;-80
2021/09/29 15:54:17;;;;;;;;;;;;;;;13.17;74.08;97015.19;5076006;28;19959;-80
2021/09/29 16:02:34;;;;;;;;;;;;;;;13.16;71.46;97016.97;5055802;28;19976;-80
2021/09/29 16:10:46;;;;;;;;;;;;;;;12.89;71.69;97027.03;5074907;28;19959;-81
2021/09/29 16:14:05;;;;;;;;;;;;;;;12.93;73.48;97054.50;5074810;28;19958;-81
2021/09/29 16:16:08;;;;;;;;;;;;;;;12.96;74.19;97061.19;5070811;28;19971;-81
2021/09/29 16:32:28;;;;;;;;;;;;;;;13.04;74.81;97071.44;5074690;28;19955;-81
2021/09/29 16:37:29;;;;;;;;;;;;;;;12.98;74.47;97073.09;5074906;28;20409;-81
2021/09/29 16:39:55;;;;;;;;;;;;;;;12.94;75.41;97071.91;5074419;28;19956;-81
2021/09/29 16:42:21;;;;;;;;;;;;;;;12.93;75.31;97080.81;5074333;28;19955;-81
2021/09/29 16:44:47;;;;;;;;;;;;;;;12.93;75.41;97093.19;5073494;28;19959;-81